Terminal Aerodrome Forecast
Issued by NWS

Home | Current Version | Previous Version | Text Only | Print | Product List | Glossary On
Versions: 1 2 3 4 5 6 7 8 9 10 11 12 13 14 15 16 17
000
FTUS45 KVEF 220100 AAB
TAFDAG
TAF AMD
KDAG 220129Z 2201/2224 07015G25KT P6SM VCTS BKN090CB
     FM220200 13013KT P6SM SCT100 BKN200
     FM220600 27010KT P6SM FEW100 SCT200
     FM221800 30010KT P6SM SKC=

USA.gov is the U.S. government's official web portal to all federal, state and local government web resources and services.